createdAt,value
2018-05-17T00:01:18.739Z,21.53
2018-05-17T00:03:48.484Z,20.93
2018-05-17T00:06:17.942Z,22.57
2018-05-17T00:08:48.113Z,25.07
2018-05-17T00:11:18.234Z,23.07
2018-05-17T00:13:47.989Z,21.80
2018-05-17T00:16:18.224Z,21.77
2018-05-17T00:18:49.648Z,23.97
2018-05-17T00:21:25.919Z,23.90
2018-05-17T00:23:56.455Z,24.23
2018-05-17T00:26:26.687Z,27.63
2018-05-17T00:28:56.442Z,26.37
2018-05-17T00:31:26.536Z,28.13
2018-05-17T00:33:56.631Z,27.63
2018-05-17T00:36:27.904Z,31.47
2018-05-17T00:38:58.818Z,30.53
2018-05-17T00:41:29.454Z,31.10
2018-05-17T00:44:00.899Z,32.40
2018-05-17T00:46:31.636Z,32.80
2018-05-17T00:49:02.246Z,35.33
2018-05-17T00:51:31.986Z,33.80
2018-05-17T00:54:02.104Z,32.47
2018-05-17T00:56:32.898Z,31.97
2018-05-17T00:59:03.976Z,32.30
2018-05-17T01:01:37.169Z,34.13
2018-05-17T01:04:08.453Z,35.77
2018-05-17T01:06:39.552Z,36.63
2018-05-17T01:09:09.840Z,39.37
2018-05-17T01:11:40.595Z,34.00
2018-05-17T01:14:11.360Z,33.77
2018-05-17T01:16:41.624Z,36.83
2018-05-17T01:19:12.612Z,35.70
2018-05-17T01:21:43.369Z,38.77
2018-05-17T01:24:13.898Z,36.63
2018-05-17T01:26:55.982Z,33.97
2018-05-17T01:29:37.007Z,39.50
2018-05-17T01:32:11.464Z,38.00
2018-05-17T01:34:41.622Z,35.30
2018-05-17T01:37:23.919Z,35.07
2018-05-17T01:39:54.640Z,33.40
2018-05-17T01:42:25.608Z,34.37
2018-05-17T01:44:55.720Z,31.60
2018-05-17T01:47:26.044Z,36.43
2018-05-17T01:49:56.256Z,34.30
2018-05-17T01:52:26.886Z,36.90
2018-05-17T01:54:58.439Z,28.70
2018-05-17T01:57:30.488Z,29.43
2018-05-17T02:00:01.236Z,33.93
2018-05-17T02:02:32.121Z,31.37
2018-05-17T02:05:04.415Z,29.67
2018-05-17T02:07:34.837Z,29.00
2018-05-17T02:10:05.096Z,29.67
2018-05-17T02:12:35.211Z,31.10
2018-05-17T02:15:05.356Z,33.13
2018-05-17T02:17:35.483Z,33.00
2018-05-17T02:20:05.252Z,30.13
2018-05-17T02:22:37.189Z,30.80
2018-05-17T02:25:07.563Z,33.03
2018-05-17T02:27:38.603Z,34.10
2018-05-17T02:30:11.060Z,31.63
2018-05-17T02:32:41.351Z,36.03
2018-05-17T02:35:11.427Z,32.17
2018-05-17T02:37:46.466Z,33.37
2018-05-17T02:40:16.887Z,30.77
2018-05-17T02:42:48.842Z,31.73
2018-05-17T02:45:19.157Z,31.23
2018-05-17T02:47:49.403Z,37.23
2018-05-17T02:50:20.241Z,32.47
2018-05-17T02:52:50.052Z,33.87
2018-05-17T02:55:20.248Z,31.13
2018-05-17T02:57:50.497Z,32.77
2018-05-17T03:00:20.278Z,32.27
2018-05-17T03:02:52.659Z,29.73
2018-05-17T03:05:23.155Z,34.30
2018-05-17T03:07:53.274Z,32.27
2018-05-17T03:10:28.976Z,31.30
2018-05-17T03:12:59.864Z,30.03
2018-05-17T03:15:30.192Z,26.20
2018-05-17T03:18:00.362Z,25.43
2018-05-17T03:20:30.122Z,23.87
2018-05-17T03:23:00.238Z,22.67
2018-05-17T03:25:29.977Z,23.33
2018-05-17T03:28:00.124Z,22.90
2018-05-17T03:30:30.480Z,22.37
2018-05-17T03:33:00.735Z,21.23
2018-05-17T03:35:30.876Z,21.93
2018-05-17T03:38:01.107Z,22.67
2018-05-17T03:40:31.323Z,23.30
2018-05-17T03:43:01.566Z,18.83
2018-05-17T03:45:32.555Z,19.67
2018-05-17T03:48:02.720Z,23.80
2018-05-17T03:50:35.405Z,22.00
2018-05-17T03:53:07.364Z,22.73
2018-05-17T03:55:37.799Z,19.93
2018-05-17T03:58:08.064Z,23.10
2018-05-17T04:00:47.028Z,21.13
2018-05-17T04:05:33.262Z,24.63
2018-05-17T04:08:03.433Z,26.43
2018-05-17T04:10:33.541Z,20.37
2018-05-17T04:13:03.700Z,28.00
2018-05-17T04:15:34.019Z,22.00
2018-05-17T04:18:04.475Z,23.53
2018-05-17T04:20:34.272Z,23.93
2018-05-17T04:23:04.517Z,23.13
2018-05-17T04:25:34.668Z,21.90
2018-05-17T04:28:04.901Z,24.13
2018-05-17T04:30:35.508Z,25.20
2018-05-17T04:33:06.167Z,26.67
2018-05-17T04:35:36.570Z,27.50
2018-05-17T04:38:06.828Z,27.60
2018-05-17T04:40:37.285Z,27.67
2018-05-17T04:43:07.518Z,29.43
2018-05-17T04:45:37.759Z,25.20
2018-05-17T04:48:07.940Z,29.10
2018-05-17T04:50:38.084Z,25.83
2018-05-17T04:53:08.512Z,27.43
2018-05-17T04:55:38.634Z,24.00
2018-05-17T04:58:08.752Z,21.83
2018-05-17T05:00:44.803Z,24.73
2018-05-17T05:03:15.215Z,22.80
2018-05-17T05:05:45.369Z,23.73
2018-05-17T05:08:15.616Z,23.47
2018-05-17T05:10:45.899Z,27.47
2018-05-17T05:13:16.312Z,27.07
2018-05-17T05:15:46.546Z,24.53
2018-05-17T05:18:16.874Z,23.90
2018-05-17T05:20:47.006Z,25.83
2018-05-17T05:23:17.471Z,26.33
2018-05-17T05:25:47.702Z,18.73
2018-05-17T05:28:18.322Z,23.57
2018-05-17T05:30:48.507Z,22.57
2018-05-17T05:33:19.257Z,18.03
2018-05-17T05:35:49.415Z,21.30
2018-05-17T05:38:19.806Z,22.67
2018-05-17T05:40:50.108Z,19.27
2018-05-17T05:43:20.353Z,27.33
2018-05-17T05:45:52.466Z,22.07
2018-05-17T05:48:23.569Z,24.50
2018-05-17T05:50:54.301Z,19.27
2018-05-17T05:53:25.470Z,21.47
2018-05-17T05:55:55.613Z,23.93
2018-05-17T05:58:27.567Z,21.93
2018-05-17T06:00:57.882Z,23.80
2018-05-17T06:03:29.797Z,18.53
2018-05-17T06:06:00.264Z,17.27
2018-05-17T06:08:30.810Z,20.67
2018-05-17T06:11:00.916Z,18.47
2018-05-17T06:13:32.448Z,20.10
2018-05-17T06:16:02.574Z,14.30
2018-05-17T06:18:32.732Z,21.17
2018-05-17T06:21:02.879Z,17.57
2018-05-17T06:23:33.359Z,18.80
2018-05-17T06:26:03.424Z,20.45
2018-05-17T06:28:33.189Z,22.77
2018-05-17T06:31:03.342Z,22.63
2018-05-17T06:33:33.588Z,16.33
2018-05-17T06:36:04.842Z,20.77
2018-05-17T06:38:35.144Z,20.43
2018-05-17T06:41:05.493Z,20.60
2018-05-17T06:43:35.893Z,21.23
2018-05-17T06:46:05.932Z,15.53
2018-05-17T06:48:37.668Z,15.10
2018-05-17T06:51:09.491Z,15.30
2018-05-17T06:53:43.564Z,16.83
2018-05-17T06:56:13.346Z,14.57
2018-05-17T06:58:43.522Z,17.57
2018-05-17T07:01:14.520Z,15.90
2018-05-17T07:03:45.256Z,20.87
2018-05-17T07:06:15.985Z,13.77
2018-05-17T07:08:48.931Z,16.50
2018-05-17T07:11:20.043Z,17.67
2018-05-17T07:13:50.211Z,15.50
2018-05-17T07:16:21.430Z,14.40
2018-05-17T07:18:53.533Z,18.70
2018-05-17T07:21:25.512Z,14.07
2018-05-17T07:23:55.622Z,17.63
2018-05-17T07:26:27.115Z,12.93
2018-05-17T07:28:58.140Z,13.40
2018-05-17T07:31:28.949Z,13.63
2018-05-17T07:33:59.523Z,16.03
2018-05-17T07:36:36.484Z,15.67
2018-05-17T07:39:07.847Z,15.47
2018-05-17T07:41:39.104Z,15.17
2018-05-17T07:44:31.424Z,12.27
2018-05-17T07:47:01.548Z,13.10
2018-05-17T07:49:32.079Z,12.20
2018-05-17T07:52:02.251Z,14.13
2018-05-17T07:54:31.994Z,12.73
2018-05-17T07:57:03.263Z,14.97
2018-05-17T07:59:35.405Z,15.43
2018-05-17T08:02:07.183Z,14.80
2018-05-17T08:04:37.422Z,14.00
2018-05-17T08:07:07.887Z,12.63
2018-05-17T08:09:39.000Z,13.33
2018-05-17T08:12:09.351Z,14.80
2018-05-17T08:14:40.001Z,12.13
2018-05-17T08:17:11.104Z,17.03
2018-05-17T08:19:41.440Z,15.43
2018-05-17T08:22:15.275Z,15.10
2018-05-17T08:24:45.739Z,13.73
2018-05-17T08:27:15.837Z,17.90
2018-05-17T08:29:46.026Z,18.07
2018-05-17T08:32:16.201Z,12.47
2018-05-17T08:34:46.300Z,16.10
2018-05-17T08:37:16.492Z,11.57
2018-05-17T08:39:46.559Z,12.37
2018-05-17T08:42:16.699Z,14.23
2018-05-17T08:44:46.448Z,13.87
2018-05-17T08:47:17.733Z,16.27
2018-05-17T08:49:47.952Z,15.87
2018-05-17T08:52:18.125Z,15.00
2018-05-17T08:54:48.772Z,15.77
2018-05-17T08:57:19.205Z,16.13
2018-05-17T08:59:51.156Z,17.60
2018-05-17T09:02:26.924Z,14.67
2018-05-17T09:04:58.165Z,18.27
2018-05-17T09:07:29.314Z,13.23
2018-05-17T09:10:00.510Z,18.00
2018-05-17T09:12:30.661Z,18.17
2018-05-17T09:15:01.627Z,17.03
2018-05-17T09:17:31.932Z,15.60
2018-05-17T09:20:01.952Z,17.13
2018-05-17T09:22:34.116Z,13.40
2018-05-17T09:25:04.204Z,14.77
2018-05-17T09:27:36.660Z,18.20
2018-05-17T09:30:07.387Z,13.07
2018-05-17T09:32:38.076Z,15.83
2018-05-17T09:35:09.075Z,15.73
2018-05-17T09:37:38.967Z,17.00
2018-05-17T09:40:11.170Z,15.63
2018-05-17T09:42:41.430Z,16.70
2018-05-17T09:45:11.614Z,16.93
2018-05-17T09:47:42.156Z,15.50
2018-05-17T09:50:13.282Z,15.03
2018-05-17T09:52:44.728Z,12.73
2018-05-17T09:55:15.553Z,14.10
2018-05-17T09:57:47.445Z,16.57
2018-05-17T10:00:22.378Z,13.93
2018-05-17T10:03:00.228Z,15.03
2018-05-17T10:05:31.388Z,15.80
2018-05-17T10:08:04.960Z,16.40
2018-05-17T10:10:35.662Z,12.37
2018-05-17T10:13:05.907Z,13.57
2018-05-17T10:15:36.770Z,19.07
2018-05-17T10:18:07.232Z,15.47
2018-05-17T10:20:37.793Z,17.93
2018-05-17T10:23:08.029Z,19.07
2018-05-17T10:25:38.754Z,17.57
2018-05-17T10:28:09.376Z,19.23
2018-05-17T10:30:39.876Z,17.07
2018-05-17T10:33:10.024Z,17.13
2018-05-17T10:35:40.428Z,16.23
2018-05-17T10:38:14.207Z,16.10
2018-05-17T10:40:44.603Z,19.80
2018-05-17T10:43:15.496Z,16.43
2018-05-17T10:45:45.943Z,18.43
2018-05-17T10:48:23.107Z,19.70
2018-05-17T10:50:53.545Z,19.73
2018-05-17T10:53:24.156Z,30.47
2018-05-17T10:55:54.668Z,22.43
2018-05-17T10:58:25.679Z,22.73
2018-05-17T11:00:56.773Z,22.03
2018-05-17T11:03:27.498Z,23.90
2018-05-17T11:05:58.287Z,24.40
2018-05-17T11:08:28.754Z,28.80
2018-05-17T11:10:59.404Z,27.53
2018-05-17T11:13:29.529Z,29.20
2018-05-17T11:16:01.507Z,28.73
2018-05-17T11:18:36.374Z,29.10
2018-05-17T11:21:06.288Z,31.17
2018-05-17T11:23:38.132Z,29.93
2018-05-17T11:26:16.176Z,31.80
2018-05-17T11:28:51.310Z,32.70
2018-05-17T11:31:21.770Z,29.33
2018-05-17T11:33:52.116Z,31.80
2018-05-17T11:36:22.553Z,31.47
2018-05-17T11:39:07.785Z,28.57
2018-05-17T11:41:38.333Z,29.67
2018-05-17T11:44:09.006Z,34.07
2018-05-17T11:46:39.947Z,31.93
2018-05-17T11:49:10.403Z,31.40
2018-05-17T11:51:41.276Z,32.33
2018-05-17T11:54:12.409Z,31.87
2018-05-17T11:56:43.097Z,28.40
2018-05-17T11:59:13.920Z,33.47
2018-05-17T12:01:50.538Z,29.23
2018-05-17T12:04:21.147Z,30.20
2018-05-17T12:06:51.625Z,31.83
2018-05-17T12:09:25.754Z,31.80
2018-05-17T12:11:56.232Z,28.90
2018-05-17T12:14:26.631Z,30.10
2018-05-17T12:16:56.772Z,34.20
2018-05-17T12:19:27.142Z,30.87
2018-05-17T12:21:58.220Z,34.57
2018-05-17T12:24:28.677Z,31.47
2018-05-17T12:26:59.033Z,30.80
2018-05-17T12:29:29.764Z,33.50
2018-05-17T12:31:59.934Z,31.80
2018-05-17T12:34:30.428Z,32.80
2018-05-17T12:37:01.334Z,28.33
2018-05-17T12:39:33.039Z,29.10
2018-05-17T12:42:03.554Z,32.63
2018-05-17T12:44:33.656Z,26.30
2018-05-17T12:47:03.824Z,26.87
2018-05-17T12:49:34.735Z,27.10
2018-05-17T12:52:05.533Z,27.17
2018-05-17T12:54:35.996Z,28.60
2018-05-17T12:57:06.413Z,27.70
2018-05-17T13:02:54.834Z,26.97
2018-05-17T13:05:25.569Z,24.67
2018-05-17T13:07:56.370Z,26.03
2018-05-17T13:10:27.927Z,30.90
2018-05-17T13:12:58.657Z,22.57
2018-05-17T13:15:29.165Z,26.83
2018-05-17T13:18:01.164Z,26.77
2018-05-17T13:20:32.381Z,30.17
2018-05-17T13:23:04.847Z,25.60
2018-05-17T13:25:36.209Z,22.37
2018-05-17T13:28:06.937Z,25.10
2018-05-17T13:30:36.998Z,28.67
2018-05-17T13:33:08.009Z,26.27
2018-05-17T13:35:38.215Z,24.60
2018-05-17T13:38:09.352Z,25.67
2018-05-17T13:40:53.864Z,25.43
2018-05-17T13:43:24.340Z,24.57
2018-05-17T13:45:54.512Z,23.70
2018-05-17T13:48:24.679Z,22.03
2018-05-17T13:50:55.135Z,19.70
2018-05-17T13:53:25.383Z,16.40
2018-05-17T13:55:55.751Z,20.93
2018-05-17T13:58:26.526Z,21.70
2018-05-17T14:00:57.617Z,24.30
2018-05-17T14:03:28.089Z,18.60
2018-05-17T14:05:59.449Z,20.30
2018-05-17T14:08:29.599Z,20.87
2018-05-17T14:10:59.970Z,19.57
2018-05-17T14:13:30.301Z,16.30
2018-05-17T14:16:09.947Z,21.30
2018-05-17T14:18:39.966Z,17.83
2018-05-17T14:21:10.345Z,21.10
2018-05-17T14:23:43.734Z,16.50
2018-05-17T14:26:14.013Z,19.50
2018-05-17T14:28:44.211Z,16.77
2018-05-17T14:31:22.045Z,17.73
2018-05-17T14:33:52.578Z,19.77
2018-05-17T14:36:25.870Z,16.73
2018-05-17T14:38:56.613Z,20.07
2018-05-17T14:41:29.077Z,20.10
2018-05-17T14:43:59.878Z,20.50
2018-05-17T14:46:30.751Z,17.63
2018-05-17T14:49:01.378Z,15.57
2018-05-17T14:51:31.806Z,17.00
2018-05-17T14:54:02.180Z,19.77
2018-05-17T14:56:32.437Z,18.83
2018-05-17T14:59:02.665Z,20.10
2018-05-17T15:01:32.980Z,20.13
2018-05-17T15:04:03.222Z,18.77
2018-05-17T15:06:33.328Z,17.00
2018-05-17T15:09:07.021Z,18.30
2018-05-17T15:11:37.253Z,19.77
2018-05-17T15:14:07.377Z,17.23
2018-05-17T15:16:37.528Z,14.43
2018-05-17T15:19:07.702Z,15.57
2018-05-17T15:21:40.300Z,23.77
2018-05-17T15:24:14.318Z,16.90
2018-05-17T15:26:44.394Z,22.80
2018-05-17T15:29:14.904Z,17.53
2018-05-17T15:31:45.465Z,15.93
2018-05-17T15:34:16.049Z,14.77
2018-05-17T15:36:47.868Z,17.40
2018-05-17T15:39:18.821Z,15.80
2018-05-17T15:41:53.720Z,17.30
2018-05-17T15:44:24.493Z,15.47
2018-05-17T15:47:12.362Z,16.23
2018-05-17T15:49:43.941Z,15.10
2018-05-17T15:52:18.416Z,19.30
2018-05-17T15:54:51.499Z,14.37
2018-05-17T15:57:23.846Z,16.47
2018-05-17T15:59:54.617Z,19.07
2018-05-17T16:02:25.094Z,18.37
2018-05-17T16:04:55.565Z,15.37
2018-05-17T16:07:25.842Z,15.87
2018-05-17T16:09:56.410Z,14.67
2018-05-17T16:12:26.726Z,21.73
2018-05-17T16:15:15.461Z,14.43
2018-05-17T16:17:45.506Z,21.87
2018-05-17T16:20:15.624Z,16.20
2018-05-17T16:22:45.795Z,19.27
2018-05-17T16:25:17.968Z,18.27
2018-05-17T16:27:48.096Z,17.23
2018-05-17T16:30:24.097Z,16.07
2018-05-17T16:32:54.730Z,18.77
2018-05-17T16:35:26.115Z,18.50
2018-05-17T16:37:57.009Z,15.10
2018-05-17T16:40:32.189Z,16.63
2018-05-17T16:43:04.618Z,19.23
2018-05-17T16:45:35.642Z,12.93
2018-05-17T16:48:07.209Z,16.40
2018-05-17T16:50:37.828Z,15.83
2018-05-17T16:53:08.982Z,20.17
2018-05-17T16:55:39.563Z,20.73
2018-05-17T16:58:10.063Z,17.90
2018-05-17T17:00:41.060Z,19.60
2018-05-17T17:03:11.708Z,15.53
2018-05-17T17:06:07.591Z,17.13
2018-05-17T17:08:38.113Z,22.33
2018-05-17T17:11:08.599Z,19.73
2018-05-17T17:13:43.470Z,15.70
2018-05-17T17:16:14.256Z,19.03
2018-05-17T17:18:45.536Z,14.87
2018-05-17T17:21:16.907Z,13.17
2018-05-17T17:23:50.930Z,16.77
2018-05-17T17:26:21.498Z,30.13
2018-05-17T17:28:51.881Z,16.87
2018-05-17T17:31:22.660Z,17.27
2018-05-17T17:33:53.730Z,21.93
2018-05-17T17:36:25.328Z,18.70
2018-05-17T17:38:55.939Z,15.67
2018-05-17T17:41:27.099Z,17.90
2018-05-17T17:43:59.455Z,14.97
2018-05-17T17:46:35.938Z,17.37
2018-05-17T17:49:06.512Z,17.47
2018-05-17T17:51:37.308Z,16.23
2018-05-17T17:54:08.200Z,18.33
2018-05-17T17:56:45.511Z,15.03
2018-05-17T17:59:16.306Z,17.03
2018-05-17T18:01:47.188Z,16.23
2018-05-17T18:04:18.607Z,15.93
2018-05-17T18:06:50.911Z,18.33
2018-05-17T18:09:21.698Z,16.87
2018-05-17T18:11:52.638Z,14.77
2018-05-17T18:14:23.468Z,17.00
2018-05-17T18:16:55.545Z,15.57
2018-05-17T18:19:25.960Z,16.30
2018-05-17T18:21:56.640Z,13.73
2018-05-17T18:24:27.430Z,15.57
2018-05-17T18:26:58.232Z,25.87
2018-05-17T18:29:29.428Z,16.13
2018-05-17T18:32:00.003Z,11.70
2018-05-17T18:34:36.536Z,13.83
2018-05-17T18:37:07.619Z,14.93
2018-05-17T18:39:38.132Z,16.27
2018-05-17T18:42:09.151Z,20.40
2018-05-17T18:44:39.663Z,13.07
2018-05-17T18:47:11.729Z,15.17
2018-05-17T18:49:42.847Z,18.80
2018-05-17T18:52:13.715Z,18.20
2018-05-17T18:54:44.380Z,11.57
2018-05-17T18:57:15.594Z,17.10
2018-05-17T18:59:46.284Z,16.70
2018-05-17T19:02:17.454Z,15.57
2018-05-17T19:04:48.977Z,16.13
2018-05-17T19:07:19.595Z,21.80
2018-05-17T19:09:50.092Z,15.53
2018-05-17T19:12:21.129Z,17.00
2018-05-17T19:14:53.429Z,17.93
2018-05-17T19:17:25.624Z,13.97
2018-05-17T19:19:56.355Z,14.77
2018-05-17T19:22:26.998Z,15.93
2018-05-17T19:24:59.917Z,19.30
2018-05-17T19:27:31.616Z,19.67
2018-05-17T19:30:02.569Z,17.83
2018-05-17T19:32:34.895Z,21.70
2018-05-17T19:35:05.368Z,18.37
2018-05-17T19:37:35.987Z,15.60
2018-05-17T19:40:06.057Z,18.40
2018-05-17T19:42:54.251Z,15.30
2018-05-17T19:45:24.729Z,14.90
2018-05-17T19:47:55.527Z,15.53
2018-05-17T19:50:26.007Z,13.20
2018-05-17T19:52:59.484Z,16.73
2018-05-17T19:55:29.983Z,20.47
2018-05-17T19:58:00.598Z,14.57
2018-05-17T20:00:31.706Z,19.83
2018-05-17T20:03:02.439Z,18.37
2018-05-17T20:05:32.880Z,23.13
2018-05-17T20:08:04.162Z,13.27
2018-05-17T20:10:35.503Z,21.37
2018-05-17T20:13:07.016Z,13.73
2018-05-17T20:15:38.530Z,16.27
2018-05-17T20:18:09.035Z,17.23
2018-05-17T20:20:39.722Z,18.83
2018-05-17T20:23:09.997Z,13.50
2018-05-17T20:25:41.039Z,16.53
2018-05-17T20:28:10.888Z,18.27
2018-05-17T20:30:41.155Z,17.50
2018-05-17T20:33:11.889Z,17.97
2018-05-17T20:35:42.058Z,15.97
2018-05-17T20:38:12.127Z,15.97
2018-05-17T20:40:42.250Z,19.00
2018-05-17T20:43:12.372Z,17.60
2018-05-17T20:45:42.564Z,20.40
2018-05-17T20:48:13.312Z,13.73
2018-05-17T20:50:43.472Z,15.53
2018-05-17T20:53:13.643Z,21.07
2018-05-17T20:55:43.790Z,15.07
2018-05-17T20:58:13.932Z,17.07
2018-05-17T21:00:44.037Z,19.30
2018-05-17T21:03:20.575Z,18.40
2018-05-17T21:05:51.652Z,17.03
2018-05-17T21:08:21.830Z,16.17
2018-05-17T21:10:52.148Z,16.47
2018-05-17T21:13:22.872Z,16.50
2018-05-17T21:15:53.973Z,16.98
2018-05-17T21:18:28.359Z,14.93
2018-05-17T21:21:02.589Z,18.37
2018-05-17T21:23:32.955Z,20.20
2018-05-17T21:26:03.203Z,15.93
2018-05-17T21:28:33.363Z,14.90
2018-05-17T21:31:03.611Z,17.00
2018-05-17T21:33:33.334Z,11.00
2018-05-17T21:36:03.964Z,18.13
2018-05-17T21:38:35.091Z,16.07
2018-05-17T21:41:05.269Z,18.87
2018-05-17T21:43:35.440Z,14.10
2018-05-17T21:46:06.558Z,14.33
2018-05-17T21:48:37.807Z,18.90
2018-05-17T21:51:07.985Z,13.23
2018-05-17T21:53:39.211Z,14.93
2018-05-17T21:56:08.999Z,35.00
2018-05-17T21:58:39.185Z,18.30
2018-05-17T22:01:09.443Z,19.57
2018-05-17T22:03:40.151Z,14.73
2018-05-17T22:06:11.091Z,21.63
2018-05-17T22:08:41.336Z,18.03
2018-05-17T22:11:11.621Z,12.70
2018-05-17T22:13:41.775Z,17.27
2018-05-17T22:16:12.718Z,19.70
2018-05-17T22:18:43.260Z,19.67
2018-05-17T22:21:13.159Z,19.17
2018-05-17T22:23:43.400Z,13.60
2018-05-17T22:26:16.236Z,16.30
2018-05-17T22:28:47.131Z,21.93
2018-05-17T22:31:17.294Z,18.40
2018-05-17T22:33:47.364Z,15.20
2018-05-17T22:36:17.567Z,17.90
2018-05-17T22:38:47.811Z,19.97
2018-05-17T22:41:19.202Z,17.57
2018-05-17T22:43:50.955Z,22.20
2018-05-17T22:46:21.080Z,16.90
2018-05-17T22:48:52.609Z,22.40
2018-05-17T22:51:22.382Z,16.40
2018-05-17T22:53:54.302Z,18.63
2018-05-17T22:56:33.273Z,19.57
2018-05-17T22:59:03.501Z,23.57
2018-05-17T23:01:33.627Z,18.93
2018-05-17T23:04:03.744Z,19.97
2018-05-17T23:06:34.590Z,16.40
2018-05-17T23:09:05.417Z,22.83
2018-05-17T23:11:35.551Z,20.87
2018-05-17T23:14:05.709Z,20.33
2018-05-17T23:16:35.783Z,19.47
2018-05-17T23:19:06.509Z,21.53
2018-05-17T23:21:36.629Z,18.53
2018-05-17T23:24:06.758Z,17.13
2018-05-17T23:26:36.872Z,21.57
2018-05-17T23:29:07.007Z,14.90
2018-05-17T23:31:37.114Z,23.27
2018-05-17T23:34:07.283Z,16.63
2018-05-17T23:36:37.967Z,23.77
2018-05-17T23:39:09.218Z,21.07
2018-05-17T23:41:46.398Z,20.63
2018-05-17T23:44:17.272Z,18.63
2018-05-17T23:46:47.756Z,22.60
2018-05-17T23:49:19.218Z,22.23
2018-05-17T23:51:50.408Z,17.47
2018-05-17T23:54:20.680Z,18.27
2018-05-17T23:56:52.132Z,17.93
2018-05-17T23:59:23.092Z,15.50
